createdAt,value
2023-11-18T00:05:09.936Z,1002
2023-11-18T00:11:09.967Z,1002
2023-11-18T00:17:10.048Z,1002
2023-11-18T00:23:09.919Z,1002
2023-11-18T00:29:09.945Z,1002
2023-11-18T00:35:09.940Z,1002
2023-11-18T00:41:09.937Z,1002
2023-11-18T00:47:10.093Z,1002
2023-11-18T00:53:09.935Z,1002
2023-11-18T00:59:10.021Z,1002
2023-11-18T01:05:09.925Z,1002
2023-11-18T01:11:09.914Z,1002
2023-11-18T01:17:09.929Z,1002
2023-11-18T01:23:09.973Z,1001
2023-11-18T01:29:09.923Z,1002
2023-11-18T01:35:09.948Z,1002
2023-11-18T01:41:09.967Z,1002
2023-11-18T01:47:09.936Z,1002
2023-11-18T01:53:09.959Z,1002
2023-11-18T01:59:09.946Z,1002
2023-11-18T02:05:09.981Z,1002
2023-11-18T02:11:09.911Z,1002
2023-11-18T02:17:09.978Z,1002
2023-11-18T02:23:09.925Z,1002
2023-11-18T02:29:10.010Z,1002
2023-11-18T02:35:09.934Z,1002
2023-11-18T02:41:09.970Z,1002
2023-11-18T02:47:09.907Z,1002
2023-11-18T02:53:09.983Z,1002
2023-11-18T02:59:09.956Z,1002
2023-11-18T03:05:09.910Z,1002
2023-11-18T03:11:10.212Z,1001
2023-11-18T03:17:10.007Z,1002
2023-11-18T03:23:09.952Z,1002
2023-11-18T03:29:09.966Z,1002
2023-11-18T03:35:10.440Z,1001
2023-11-18T03:41:09.996Z,1001
2023-11-18T03:47:09.889Z,1001
2023-11-18T03:53:09.912Z,1001
2023-11-18T03:59:09.934Z,1001
2023-11-18T04:05:09.997Z,1001
2023-11-18T04:11:09.926Z,1001
2023-11-18T04:17:09.990Z,1001
2023-11-18T04:23:09.900Z,1002
2023-11-18T04:29:09.938Z,1002
2023-11-18T04:35:09.918Z,1001
2023-11-18T04:41:09.916Z,1001
2023-11-18T04:47:10.080Z,1001
2023-11-18T04:53:10.188Z,1001
2023-11-18T04:59:09.882Z,1001
2023-11-18T05:05:10.016Z,1001
2023-11-18T05:11:09.921Z,1001
2023-11-18T05:17:10.028Z,1001
2023-11-18T05:23:09.914Z,1001
2023-11-18T05:29:09.916Z,1001
2023-11-18T05:35:09.935Z,1001
2023-11-18T05:41:09.907Z,1001
2023-11-18T05:47:09.981Z,1000
2023-11-18T05:53:09.913Z,1000
2023-11-18T05:59:10.209Z,1000
2023-11-18T06:05:09.934Z,1000
2023-11-18T06:11:09.901Z,1000
2023-11-18T06:17:10.054Z,1000
2023-11-18T06:23:09.962Z,1000
2023-11-18T06:29:09.930Z,1000
2023-11-18T06:35:09.914Z,1000
2023-11-18T06:41:09.874Z,1000
2023-11-18T06:47:09.903Z,1000
2023-11-18T06:53:09.913Z,1000
2023-11-18T06:59:09.940Z,1000
2023-11-18T07:05:09.962Z,1000
2023-11-18T07:11:09.937Z,1000
2023-11-18T07:17:09.877Z,1000
2023-11-18T07:23:09.951Z,1000
2023-11-18T07:29:09.872Z,1001
2023-11-18T07:35:09.947Z,1001
2023-11-18T07:41:17.210Z,1001
2023-11-18T07:47:09.889Z,1001
2023-11-18T07:53:09.864Z,1001
2023-11-18T07:59:09.968Z,1000
2023-11-18T08:05:09.855Z,1000
2023-11-18T08:11:09.896Z,1000
2023-11-18T08:17:09.944Z,1000
2023-11-18T08:23:09.910Z,1000
2023-11-18T08:29:09.878Z,1000
2023-11-18T08:35:09.858Z,1000
2023-11-18T08:41:09.897Z,1000
2023-11-18T08:47:10.027Z,1000
2023-11-18T08:53:09.904Z,1000
2023-11-18T08:59:10.066Z,1000
2023-11-18T09:05:09.829Z,1000
2023-11-18T09:11:09.833Z,1000
2023-11-18T09:17:09.850Z,1000
2023-11-18T09:23:09.819Z,1000
2023-11-18T09:29:10.011Z,1000
2023-11-18T09:35:09.944Z,1000
2023-11-18T09:41:09.915Z,1000
2023-11-18T09:47:09.928Z,1000
2023-11-18T09:53:09.892Z,1000
2023-11-18T09:59:09.839Z,1000
2023-11-18T10:05:09.869Z,1000
2023-11-18T10:11:09.842Z,1000
2023-11-18T10:17:09.916Z,1000
2023-11-18T10:23:09.837Z,1000
2023-11-18T10:29:09.835Z,1000
2023-11-18T10:35:09.856Z,1000
2023-11-18T10:41:09.848Z,1000
2023-11-18T10:47:09.833Z,999
2023-11-18T10:53:09.829Z,999
2023-11-18T10:59:09.893Z,999
2023-11-18T11:05:12.330Z,999
2023-11-18T11:11:09.915Z,999
2023-11-18T11:17:09.861Z,999
2023-11-18T11:23:10.017Z,998
2023-11-18T11:29:09.851Z,998
2023-11-18T11:35:09.904Z,998
2023-11-18T11:41:10.041Z,998
2023-11-18T11:47:09.846Z,998
2023-11-18T11:53:09.876Z,998
2023-11-18T11:59:09.799Z,998
2023-11-18T12:05:09.848Z,998
2023-11-18T12:11:09.858Z,998
2023-11-18T12:17:09.913Z,998
2023-11-18T12:23:09.794Z,998
2023-11-18T12:29:09.804Z,998
2023-11-18T12:35:09.792Z,998
2023-11-18T12:41:09.839Z,998
2023-11-18T12:47:09.818Z,998
2023-11-18T12:53:09.831Z,997
2023-11-18T12:59:09.837Z,997
2023-11-18T13:05:09.873Z,997
2023-11-18T13:11:09.822Z,997
2023-11-18T13:17:10.005Z,997
2023-11-18T13:23:10.135Z,997
2023-11-18T13:29:09.820Z,997
2023-11-18T13:35:09.836Z,997
2023-11-18T13:41:09.799Z,996
2023-11-18T13:47:09.816Z,996
2023-11-18T13:53:10.011Z,996
2023-11-18T13:59:09.873Z,996
2023-11-18T14:05:09.814Z,996
2023-11-18T14:11:17.978Z,996
2023-11-18T14:17:09.830Z,995
2023-11-18T14:23:10.049Z,995
2023-11-18T14:29:09.833Z,995
2023-11-18T14:35:09.808Z,995
2023-11-18T14:41:09.815Z,995
2023-11-18T14:47:09.779Z,995
2023-11-18T14:53:09.857Z,995
2023-11-18T14:59:09.829Z,994
2023-11-18T15:05:09.813Z,994
2023-11-18T15:11:09.854Z,994
2023-11-18T15:17:09.848Z,994
2023-11-18T15:23:09.825Z,994
2023-11-18T15:29:09.802Z,994
2023-11-18T15:35:10.093Z,994
2023-11-18T15:41:09.980Z,994
2023-11-18T15:47:10.140Z,994
2023-11-18T15:53:10.068Z,993
2023-11-18T15:59:09.832Z,993
2023-11-18T16:05:09.873Z,993
2023-11-18T16:11:09.830Z,993
2023-11-18T16:17:09.943Z,993
2023-11-18T16:23:09.836Z,993
2023-11-18T16:29:09.791Z,993
2023-11-18T16:35:09.830Z,993
2023-11-18T16:41:09.808Z,993
2023-11-18T16:47:09.888Z,993
2023-11-18T16:53:09.802Z,993
2023-11-18T16:59:09.939Z,992
2023-11-18T17:05:09.796Z,992
2023-11-18T17:11:09.820Z,992
2023-11-18T17:17:09.874Z,992
2023-11-18T17:23:09.806Z,992
2023-11-18T17:29:09.782Z,992
2023-11-18T17:35:09.794Z,992
2023-11-18T17:41:09.861Z,992
2023-11-18T17:47:09.769Z,992
2023-11-18T17:53:09.797Z,992
2023-11-18T17:59:09.791Z,992
2023-11-18T18:05:09.816Z,992
2023-11-18T18:11:09.792Z,992
2023-11-18T18:17:09.747Z,992
2023-11-18T18:23:09.783Z,992
2023-11-18T18:29:09.796Z,992
2023-11-18T18:35:09.804Z,992
2023-11-18T18:41:09.760Z,992
2023-11-18T18:47:09.749Z,992
2023-11-18T18:53:09.778Z,992
2023-11-18T18:59:09.758Z,992
2023-11-18T19:05:09.987Z,991
2023-11-18T19:11:09.743Z,991
2023-11-18T19:17:09.752Z,991
2023-11-18T19:23:09.777Z,991
2023-11-18T19:29:16.464Z,991
2023-11-18T19:35:09.768Z,991
2023-11-18T19:47:09.751Z,991
2023-11-18T19:53:09.778Z,991
2023-11-18T19:59:09.781Z,991
2023-11-18T20:05:09.970Z,991
2023-11-18T20:11:09.801Z,991
2023-11-18T20:17:09.746Z,991
2023-11-18T20:23:09.748Z,991
2023-11-18T20:29:09.773Z,991
2023-11-18T20:35:09.762Z,991
2023-11-18T20:47:09.783Z,990
2023-11-18T20:53:09.868Z,990
2023-11-18T20:59:10.245Z,990
2023-11-18T21:05:10.231Z,990
2023-11-18T21:11:09.753Z,990
2023-11-18T21:17:09.832Z,990
2023-11-18T21:23:09.745Z,990
2023-11-18T21:29:09.748Z,990
2023-11-18T21:35:09.813Z,990
2023-11-18T21:41:09.798Z,990
2023-11-18T21:47:09.799Z,990
2023-11-18T21:53:09.817Z,990
2023-11-18T21:59:09.717Z,989
2023-11-18T22:05:09.782Z,990
2023-11-18T22:11:09.774Z,990
2023-11-18T22:17:09.748Z,990
2023-11-18T22:23:09.755Z,989
2023-11-18T22:35:09.884Z,990
2023-11-18T22:41:09.764Z,990
2023-11-18T22:47:09.728Z,990
2023-11-18T22:53:10.579Z,990
2023-11-18T22:59:09.768Z,990
2023-11-18T23:05:09.747Z,990
2023-11-18T23:11:09.732Z,989
2023-11-18T23:17:09.760Z,989
2023-11-18T23:23:09.896Z,989
2023-11-18T23:29:09.727Z,989
2023-11-18T23:35:09.735Z,989
2023-11-18T23:41:09.728Z,989
2023-11-18T23:47:09.783Z,989
2023-11-18T23:53:09.696Z,989
2023-11-18T23:59:09.707Z,989
